Time;durP1;ratioP1;P1;durP2;ratioP2;P2;SDS_P1;SDS_P2;PMS_P1;PMS_P2;Temp;Humidity;BMP_temperature;BMP_pressure;BME280_temperature;BME280_humidity;BME280_pressure;Samples;Min_cycle;Max_cycle;Signal;HPM_P1;HPM_P2
2023/08/21 00:02:27;;;;;;;9.07;7.50;;;;;;;;;;5055278;28;20287;-68
2023/08/21 00:04:55;;;;;;;8.45;7.30;;;;;;;;;;5058445;28;20197;-68
2023/08/21 00:07:23;;;;;;;8.05;7.25;;;;;;;;;;5050573;28;20218;-72
2023/08/21 00:09:51;;;;;;;8.02;7.30;;;;;;;;;;5049946;28;20692;-69
2023/08/21 00:12:18;;;;;;;8.15;7.35;;;;;;;;;;5052462;28;20218;-68
2023/08/21 00:14:45;;;;;;;7.78;6.60;;;;;;;;;;5057083;28;20206;-66
2023/08/21 00:17:13;;;;;;;9.10;6.95;;;;;;;;;;5056968;28;20221;-66
2023/08/21 00:19:41;;;;;;;8.13;7.40;;;;;;;;;;5055578;28;20234;-69
2023/08/21 00:22:08;;;;;;;12.73;7.18;;;;;;;;;;5052297;28;20237;-67
2023/08/21 00:24:35;;;;;;;8.88;6.55;;;;;;;;;;5049980;28;20201;-67
2023/08/21 00:27:03;;;;;;;7.95;6.55;;;;;;;;;;5046891;28;20664;-67
2023/08/21 00:29:31;;;;;;;7.90;6.68;;;;;;;;;;5049195;28;20255;-69
2023/08/21 00:31:58;;;;;;;8.63;6.75;;;;;;;;;;5053863;28;20198;-68
2023/08/21 00:34:25;;;;;;;8.23;6.40;;;;;;;;;;5054815;28;20268;-69
2023/08/21 00:36:53;;;;;;;7.57;6.68;;;;;;;;;;5054744;28;20274;-69
2023/08/21 00:39:20;;;;;;;7.75;6.53;;;;;;;;;;5051563;28;20205;-68
2023/08/21 00:41:47;;;;;;;7.03;6.18;;;;;;;;;;5051600;28;20774;-68
2023/08/21 00:44:14;;;;;;;7.78;6.97;;;;;;;;;;5052315;28;20229;-68
2023/08/21 00:46:42;;;;;;;8.25;6.97;;;;;;;;;;5054458;28;20216;-68
2023/08/21 00:49:09;;;;;;;8.73;7.93;;;;;;;;;;5049255;28;20207;-68
2023/08/21 00:51:36;;;;;;;10.85;6.78;;;;;;;;;;5046459;28;20197;-68
2023/08/21 00:54:04;;;;;;;7.80;7.10;;;;;;;;;;5047436;28;20286;-67
2023/08/21 00:56:31;;;;;;;8.07;7.28;;;;;;;;;;5053673;28;20617;-69
2023/08/21 00:58:58;;;;;;;8.95;7.70;;;;;;;;;;5046465;28;20263;-68
2023/08/21 01:01:26;;;;;;;8.48;7.10;;;;;;;;;;5055793;28;20694;-68
2023/08/21 01:03:54;;;;;;;8.82;7.53;;;;;;;;;;5050845;28;20230;-67
2023/08/21 01:06:22;;;;;;;9.93;7.45;;;;;;;;;;5068180;28;20312;-67
2023/08/21 01:08:58;;;;;;;9.57;7.40;;;;;;;;;;5052799;28;20236;-66
2023/08/21 01:11:35;;;;;;;9.27;7.30;;;;;;;;;;5051102;28;20202;-68
2023/08/21 01:14:27;;;;;;;8.07;6.97;;;;;;;;;;5062180;28;20220;-68
2023/08/21 01:16:56;;;;;;;7.65;6.90;;;;;;;;;;5051628;28;20228;-68
2023/08/21 01:19:32;;;;;;;7.88;6.93;;;;;;;;;;5052953;28;20205;-68
2023/08/21 01:22:00;;;;;;;7.30;6.57;;;;;;;;;;5046118;28;20232;-68
2023/08/21 01:24:28;;;;;;;8.77;7.05;;;;;;;;;;5049068;28;20218;-68
2023/08/21 01:26:55;;;;;;;7.90;6.88;;;;;;;;;;5047391;28;20222;-66
2023/08/21 01:29:22;;;;;;;7.57;6.68;;;;;;;;;;5056030;28;20275;-68
2023/08/21 01:32:10;;;;;;;9.00;6.95;;;;;;;;;;5047392;28;20290;-67
2023/08/21 01:34:38;;;;;;;7.95;7.13;;;;;;;;;;5049638;28;20275;-68
2023/08/21 01:37:07;;;;;;;7.97;7.18;;;;;;;;;;5047076;28;20286;-68
2023/08/21 01:39:35;;;;;;;7.72;7.00;;;;;;;;;;5053572;28;20208;-67
2023/08/21 01:42:02;;;;;;;7.43;6.72;;;;;;;;;;5049289;28;20769;-68
2023/08/21 01:44:32;;;;;;;7.65;6.97;;;;;;;;;;5050609;28;20224;-67
2023/08/21 01:46:59;;;;;;;8.00;7.20;;;;;;;;;;5051516;28;20737;-68
2023/08/21 01:49:27;;;;;;;7.47;6.68;;;;;;;;;;5054152;28;20204;-68
2023/08/21 01:51:54;;;;;;;9.10;6.68;;;;;;;;;;5055153;28;20194;-68
2023/08/21 01:54:22;;;;;;;10.93;7.20;;;;;;;;;;5055730;28;20210;-69
2023/08/21 01:56:49;;;;;;;7.93;7.13;;;;;;;;;;5057701;28;20238;-67
2023/08/21 01:59:17;;;;;;;9.73;7.32;;;;;;;;;;5069321;28;20205;-67
2023/08/21 02:01:44;;;;;;;10.10;7.50;;;;;;;;;;5049168;28;20237;-67
2023/08/21 02:04:12;;;;;;;10.32;7.50;;;;;;;;;;5055809;28;20229;-68
2023/08/21 02:06:39;;;;;;;8.75;7.93;;;;;;;;;;5059204;28;20203;-68
2023/08/21 02:09:06;;;;;;;8.77;7.43;;;;;;;;;;5053299;28;20602;-67
2023/08/21 02:11:33;;;;;;;9.57;8.70;;;;;;;;;;5053788;28;20193;-67
2023/08/21 02:14:01;;;;;;;8.65;7.80;;;;;;;;;;5053133;28;20210;-68
2023/08/21 02:16:28;;;;;;;8.23;7.55;;;;;;;;;;5059077;28;20258;-69
2023/08/21 02:18:56;;;;;;;8.30;7.47;;;;;;;;;;5053332;28;20267;-68
2023/08/21 02:21:24;;;;;;;8.55;7.75;;;;;;;;;;5057330;28;20209;-68
2023/08/21 02:23:51;;;;;;;9.35;8.02;;;;;;;;;;5054025;28;20299;-68
2023/08/21 02:26:19;;;;;;;8.73;7.85;;;;;;;;;;5054535;28;20218;-68
2023/08/21 02:28:47;;;;;;;9.27;8.27;;;;;;;;;;5051998;28;20225;-68
2023/08/21 02:31:14;;;;;;;8.88;7.97;;;;;;;;;;5056291;28;20271;-69
2023/08/21 02:33:41;;;;;;;8.70;7.78;;;;;;;;;;5054235;28;20213;-68
2023/08/21 02:36:09;;;;;;;8.57;7.68;;;;;;;;;;5057119;28;20632;-68
2023/08/21 02:38:36;;;;;;;8.90;8.00;;;;;;;;;;5058015;28;20222;-67
2023/08/21 02:41:04;;;;;;;9.45;7.70;;;;;;;;;;5061282;28;20263;-68
2023/08/21 02:43:31;;;;;;;9.25;7.63;;;;;;;;;;5049840;28;20226;-68
2023/08/21 02:45:58;;;;;;;8.40;7.60;;;;;;;;;;5050896;28;20740;-67
2023/08/21 02:48:26;;;;;;;8.85;7.57;;;;;;;;;;5042989;28;20251;-68
2023/08/21 02:50:53;;;;;;;12.57;8.15;;;;;;;;;;5053829;28;20687;-67
2023/08/21 02:53:21;;;;;;;9.23;7.25;;;;;;;;;;5056525;28;20206;-67
2023/08/21 02:55:48;;;;;;;9.27;8.32;;;;;;;;;;5055735;28;20221;-69
2023/08/21 02:58:15;;;;;;;8.73;7.82;;;;;;;;;;5055078;28;20237;-67
2023/08/21 03:00:44;;;;;;;8.95;8.05;;;;;;;;;;5053123;28;20617;-67
2023/08/21 03:03:14;;;;;;;8.52;7.25;;;;;;;;;;5048675;28;20262;-67
2023/08/21 03:05:43;;;;;;;8.70;7.90;;;;;;;;;;5051430;28;20201;-68
2023/08/21 03:08:10;;;;;;;9.02;7.40;;;;;;;;;;5046373;28;20256;-67
2023/08/21 03:10:38;;;;;;;8.52;7.60;;;;;;;;;;5045667;28;20243;-67
2023/08/21 03:13:05;;;;;;;8.23;7.47;;;;;;;;;;5048697;28;20259;-67
2023/08/21 03:15:33;;;;;;;7.93;7.22;;;;;;;;;;5053325;28;20206;-67
2023/08/21 03:18:00;;;;;;;8.05;7.22;;;;;;;;;;5052472;28;20225;-67
2023/08/21 03:20:27;;;;;;;8.35;7.45;;;;;;;;;;5053833;28;20259;-67
2023/08/21 03:22:54;;;;;;;8.20;7.40;;;;;;;;;;5052527;28;20619;-67
2023/08/21 03:25:22;;;;;;;8.70;7.90;;;;;;;;;;5049112;28;20291;-69
2023/08/21 03:27:49;;;;;;;8.02;7.32;;;;;;;;;;5048300;28;20957;-68
2023/08/21 03:30:17;;;;;;;10.90;8.23;;;;;;;;;;5049146;28;20225;-68
2023/08/21 03:32:44;;;;;;;9.40;8.48;;;;;;;;;;5050391;28;20198;-65
2023/08/21 03:35:12;;;;;;;9.10;8.30;;;;;;;;;;5050061;28;20210;-68
2023/08/21 03:37:39;;;;;;;9.02;8.13;;;;;;;;;;5051285;28;20249;-67
2023/08/21 03:40:07;;;;;;;9.50;8.50;;;;;;;;;;5047825;28;20202;-67
2023/08/21 03:42:35;;;;;;;9.35;8.45;;;;;;;;;;5051215;28;20198;-67
2023/08/21 03:45:04;;;;;;;10.00;8.63;;;;;;;;;;5051143;28;20316;-67
2023/08/21 03:47:32;;;;;;;9.73;8.65;;;;;;;;;;5049268;28;20241;-69
2023/08/21 03:50:00;;;;;;;10.43;9.32;;;;;;;;;;5051498;28;20203;-69
2023/08/21 03:52:27;;;;;;;10.23;9.00;;;;;;;;;;5048343;28;20205;-69
2023/08/21 03:54:54;;;;;;;9.60;8.60;;;;;;;;;;5052892;28;20263;-69
2023/08/21 03:57:22;;;;;;;11.63;8.65;;;;;;;;;;5055162;28;20241;-68
2023/08/21 03:59:49;;;;;;;9.77;8.88;;;;;;;;;;5052620;28;20208;-70
2023/08/21 04:02:16;;;;;;;10.07;9.13;;;;;;;;;;5044806;28;20256;-69
2023/08/21 04:04:44;;;;;;;10.27;9.27;;;;;;;;;;5050793;28;20225;-69
2023/08/21 04:07:11;;;;;;;11.85;9.20;;;;;;;;;;5052644;28;20218;-69
2023/08/21 04:09:38;;;;;;;9.80;8.90;;;;;;;;;;5052498;28;21009;-69
2023/08/21 04:12:06;;;;;;;10.18;9.00;;;;;;;;;;5044144;28;20233;-69
2023/08/21 04:14:33;;;;;;;9.43;8.57;;;;;;;;;;5048253;28;20201;-69
2023/08/21 04:17:00;;;;;;;9.50;8.60;;;;;;;;;;5045696;28;20991;-69
2023/08/21 04:19:32;;;;;;;10.43;8.82;;;;;;;;;;5050645;28;20201;-69
2023/08/21 04:22:00;;;;;;;9.10;8.23;;;;;;;;;;5047004;28;21213;-68
2023/08/21 04:24:27;;;;;;;8.95;8.05;;;;;;;;;;5048272;28;20217;-69
2023/08/21 04:26:55;;;;;;;9.32;8.43;;;;;;;;;;5045912;28;20247;-70
2023/08/21 04:29:23;;;;;;;9.40;8.50;;;;;;;;;;5052954;28;20278;-70
2023/08/21 04:31:50;;;;;;;11.60;8.63;;;;;;;;;;5054692;28;20206;-70
2023/08/21 04:34:18;;;;;;;10.70;8.80;;;;;;;;;;5052710;28;20217;-70
2023/08/21 04:36:45;;;;;;;9.95;8.93;;;;;;;;;;5052668;28;20220;-70
2023/08/21 04:39:13;;;;;;;10.93;8.52;;;;;;;;;;5052010;28;20582;-67
2023/08/21 04:41:40;;;;;;;11.50;9.00;;;;;;;;;;5057672;28;20634;-68
2023/08/21 04:44:08;;;;;;;9.75;8.85;;;;;;;;;;5057707;28;20218;-69
2023/08/21 04:46:35;;;;;;;9.55;8.52;;;;;;;;;;5055603;28;20257;-69
2023/08/21 04:49:02;;;;;;;9.35;8.45;;;;;;;;;;5056093;28;20220;-68
2023/08/21 04:51:30;;;;;;;10.10;9.30;;;;;;;;;;5056712;28;20205;-67
2023/08/21 04:53:59;;;;;;;9.20;8.30;;;;;;;;;;5051336;28;20217;-70
2023/08/21 04:56:26;;;;;;;9.65;8.60;;;;;;;;;;5056317;28;20276;-67
2023/08/21 04:58:54;;;;;;;9.73;8.57;;;;;;;;;;5056635;28;20213;-68
2023/08/21 05:01:21;;;;;;;8.65;7.93;;;;;;;;;;5055492;28;20247;-68
2023/08/21 05:03:48;;;;;;;9.90;8.98;;;;;;;;;;5056513;28;20217;-68
2023/08/21 05:06:16;;;;;;;9.27;8.40;;;;;;;;;;5055738;28;20292;-68
2023/08/21 05:08:43;;;;;;;9.38;8.55;;;;;;;;;;5059815;28;20765;-68
2023/08/21 05:11:11;;;;;;;10.25;8.43;;;;;;;;;;5055379;28;20209;-69
2023/08/21 05:13:38;;;;;;;10.02;9.02;;;;;;;;;;5056455;28;20773;-67
2023/08/21 05:16:05;;;;;;;9.27;8.38;;;;;;;;;;5053658;28;20678;-68
2023/08/21 05:18:33;;;;;;;11.50;8.77;;;;;;;;;;5053129;28;20476;-68
2023/08/21 05:21:00;;;;;;;10.57;8.18;;;;;;;;;;5058487;28;20255;-67
2023/08/21 05:23:27;;;;;;;10.27;9.23;;;;;;;;;;5059082;28;20219;-68
2023/08/21 05:25:55;;;;;;;9.50;8.55;;;;;;;;;;5054353;28;20220;-68
2023/08/21 05:28:22;;;;;;;9.70;8.65;;;;;;;;;;5051792;28;20237;-68
2023/08/21 05:30:49;;;;;;;14.38;9.25;;;;;;;;;;5060285;28;20206;-69
2023/08/21 05:33:17;;;;;;;10.55;9.18;;;;;;;;;;5049350;28;20275;-68
2023/08/21 05:35:44;;;;;;;10.43;8.95;;;;;;;;;;5057383;28;20254;-67
2023/08/21 05:38:11;;;;;;;9.27;8.48;;;;;;;;;;5058191;28;20287;-68
2023/08/21 05:40:41;;;;;;;12.75;9.02;;;;;;;;;;5060071;28;20210;-69
2023/08/21 05:43:08;;;;;;;9.10;8.35;;;;;;;;;;5058004;28;20280;-68
2023/08/21 05:45:36;;;;;;;9.02;8.10;;;;;;;;;;5058168;28;20225;-68
2023/08/21 05:48:03;;;;;;;7.68;7.07;;;;;;;;;;5055415;28;20221;-69
2023/08/21 05:50:31;;;;;;;7.50;6.65;;;;;;;;;;5057234;28;20194;-67
2023/08/21 05:53:01;;;;;;;9.30;7.90;;;;;;;;;;5054188;28;20202;-68
2023/08/21 05:55:28;;;;;;;11.48;7.95;;;;;;;;;;5053572;28;20209;-68
2023/08/21 05:57:56;;;;;;;9.23;8.27;;;;;;;;;;5051799;28;20236;-68
2023/08/21 06:00:23;;;;;;;9.75;8.52;;;;;;;;;;5057260;28;20244;-68
2023/08/21 06:02:51;;;;;;;9.40;8.40;;;;;;;;;;5054897;28;20253;-67
2023/08/21 06:05:18;;;;;;;11.65;9.10;;;;;;;;;;5056967;28;20297;-67
2023/08/21 06:07:46;;;;;;;12.07;9.27;;;;;;;;;;5051991;28;20229;-67
2023/08/21 06:10:14;;;;;;;10.77;9.15;;;;;;;;;;5050681;28;20221;-68
2023/08/21 06:12:42;;;;;;;9.60;8.75;;;;;;;;;;5057531;28;20554;-68
2023/08/21 06:15:10;;;;;;;9.65;8.63;;;;;;;;;;5056477;28;20205;-66
2023/08/21 06:17:37;;;;;;;9.23;8.32;;;;;;;;;;5059058;28;20221;-67
2023/08/21 06:20:05;;;;;;;10.10;8.02;;;;;;;;;;5057255;28;20213;-68
2023/08/21 06:22:33;;;;;;;8.68;7.88;;;;;;;;;;5054230;28;20205;-69
2023/08/21 06:25:00;;;;;;;13.90;8.75;;;;;;;;;;5053320;28;20233;-65
2023/08/21 06:27:28;;;;;;;9.23;8.30;;;;;;;;;;5056659;28;20221;-67
2023/08/21 06:29:55;;;;;;;8.15;7.43;;;;;;;;;;5053194;28;20237;-68
2023/08/21 06:32:23;;;;;;;12.48;8.05;;;;;;;;;;5052029;28;20205;-68
2023/08/21 06:34:50;;;;;;;9.02;7.82;;;;;;;;;;5061538;28;20305;-68
2023/08/21 06:37:17;;;;;;;8.13;7.30;;;;;;;;;;5055995;28;20271;-68
2023/08/21 06:39:45;;;;;;;9.20;7.80;;;;;;;;;;5059587;28;20213;-67
2023/08/21 06:42:12;;;;;;;8.70;7.80;;;;;;;;;;5059602;28;20205;-69
2023/08/21 06:44:40;;;;;;;9.35;8.27;;;;;;;;;;5051642;28;20225;-68
2023/08/21 06:47:08;;;;;;;8.38;7.65;;;;;;;;;;5052365;28;20222;-68
2023/08/21 06:49:35;;;;;;;8.80;7.82;;;;;;;;;;5061352;28;20418;-70
2023/08/21 06:52:04;;;;;;;8.60;7.80;;;;;;;;;;5058216;28;20215;-67
2023/08/21 06:54:31;;;;;;;8.90;8.00;;;;;;;;;;5050740;28;20256;-68
2023/08/21 06:56:58;;;;;;;8.40;7.60;;;;;;;;;;5060825;28;20221;-67
2023/08/21 06:59:26;;;;;;;9.18;8.27;;;;;;;;;;5057672;28;20223;-69
2023/08/21 07:01:53;;;;;;;7.97;7.28;;;;;;;;;;5055976;28;20205;-70
2023/08/21 07:04:20;;;;;;;9.45;7.80;;;;;;;;;;5056176;28;20221;-67
2023/08/21 07:06:48;;;;;;;9.38;8.43;;;;;;;;;;5059937;28;20631;-70
2023/08/21 07:09:15;;;;;;;9.00;7.40;;;;;;;;;;5066123;28;20262;-71
2023/08/21 07:11:44;;;;;;;8.18;7.22;;;;;;;;;;5055399;28;20233;-70
2023/08/21 07:14:15;;;;;;;8.30;7.50;;;;;;;;;;5059553;28;20223;-67
2023/08/21 07:16:43;;;;;;;8.27;7.50;;;;;;;;;;5057018;28;20221;-68
2023/08/21 07:19:10;;;;;;;10.15;7.80;;;;;;;;;;5052668;28;20213;-69
2023/08/21 07:21:38;;;;;;;9.35;7.57;;;;;;;;;;5054724;28;20221;-68
2023/08/21 07:24:06;;;;;;;9.15;8.23;;;;;;;;;;5050334;28;20205;-67
2023/08/21 07:26:33;;;;;;;8.77;7.88;;;;;;;;;;5056574;28;22603;-67
2023/08/21 07:29:00;;;;;;;9.07;7.28;;;;;;;;;;5053104;28;20214;-66
2023/08/21 07:31:28;;;;;;;8.95;7.88;;;;;;;;;;5055721;28;20671;-67
2023/08/21 07:33:56;;;;;;;8.02;7.32;;;;;;;;;;5056954;28;20205;-70
2023/08/21 07:36:24;;;;;;;9.40;7.38;;;;;;;;;;5060589;28;20206;-68
2023/08/21 07:38:51;;;;;;;8.38;7.18;;;;;;;;;;5056696;28;20224;-66
2023/08/21 07:41:19;;;;;;;10.18;7.15;;;;;;;;;;5066949;28;20251;-67
2023/08/21 07:43:46;;;;;;;8.43;7.35;;;;;;;;;;5057454;28;20205;-68
2023/08/21 07:46:15;;;;;;;9.10;7.28;;;;;;;;;;5061640;28;20321;-67
2023/08/21 07:48:43;;;;;;;9.13;7.18;;;;;;;;;;5058206;28;20251;-67
2023/08/21 07:51:11;;;;;;;7.88;7.10;;;;;;;;;;5058409;28;20216;-68
2023/08/21 07:53:39;;;;;;;11.10;7.03;;;;;;;;;;5060538;28;20254;-68
2023/08/21 07:56:06;;;;;;;10.38;7.35;;;;;;;;;;5051495;28;20817;-71
2023/08/21 07:58:33;;;;;;;7.35;6.65;;;;;;;;;;5058108;28;20307;-69
2023/08/21 08:01:01;;;;;;;9.70;6.80;;;;;;;;;;5055753;28;20233;-70
2023/08/21 08:03:29;;;;;;;7.47;6.78;;;;;;;;;;5057660;28;20275;-68
2023/08/21 08:05:56;;;;;;;9.35;6.45;;;;;;;;;;5057952;28;20221;-66
2023/08/21 08:08:23;;;;;;;10.13;7.00;;;;;;;;;;5062131;28;20227;-70
2023/08/21 08:10:51;;;;;;;9.30;6.68;;;;;;;;;;5059356;28;20197;-66
2023/08/21 08:13:18;;;;;;;9.57;6.28;;;;;;;;;;5053801;28;20198;-67
2023/08/21 08:15:46;;;;;;;7.55;6.75;;;;;;;;;;5052700;28;20209;-69
2023/08/21 08:18:14;;;;;;;9.00;6.30;;;;;;;;;;5053517;28;20237;-68
2023/08/21 08:20:41;;;;;;;7.57;6.78;;;;;;;;;;5059339;28;20686;-67
2023/08/21 08:23:08;;;;;;;7.32;6.57;;;;;;;;;;5060214;28;20667;-67
2023/08/21 08:25:36;;;;;;;8.18;6.30;;;;;;;;;;5058553;28;20238;-68
2023/08/21 08:28:03;;;;;;;7.63;6.57;;;;;;;;;;5053529;28;20353;-68
2023/08/21 08:30:31;;;;;;;8.48;6.93;;;;;;;;;;5058573;28;20209;-68
2023/08/21 08:32:58;;;;;;;9.18;7.15;;;;;;;;;;5055767;28;20669;-67
2023/08/21 08:35:26;;;;;;;7.55;6.80;;;;;;;;;;5057725;28;20671;-68
2023/08/21 08:37:54;;;;;;;6.90;6.20;;;;;;;;;;5054884;28;20228;-70
2023/08/21 08:40:22;;;;;;;8.82;7.03;;;;;;;;;;5058568;28;20206;-66
2023/08/21 08:42:49;;;;;;;10.80;6.68;;;;;;;;;;5062604;28;20201;-66
2023/08/21 08:45:21;;;;;;;7.78;7.00;;;;;;;;;;5060790;28;20225;-66
2023/08/21 08:47:48;;;;;;;7.00;6.40;;;;;;;;;;5064630;28;20698;-67
2023/08/21 08:50:16;;;;;;;7.97;6.65;;;;;;;;;;5061268;28;20240;-69
2023/08/21 08:52:43;;;;;;;9.65;7.03;;;;;;;;;;5061087;28;20201;-68
2023/08/21 08:55:11;;;;;;;7.75;6.43;;;;;;;;;;5057717;28;20728;-67
2023/08/21 08:57:38;;;;;;;7.15;6.47;;;;;;;;;;5063070;28;20682;-65
2023/08/21 09:00:06;;;;;;;7.43;6.30;;;;;;;;;;5054307;28;20745;-69
2023/08/21 09:02:33;;;;;;;6.85;6.18;;;;;;;;;;5059061;28;20205;-71
2023/08/21 09:05:01;;;;;;;11.85;6.88;;;;;;;;;;5060850;28;20307;-66
2023/08/21 09:07:28;;;;;;;7.13;6.40;;;;;;;;;;5056172;28;20250;-66
2023/08/21 09:09:56;;;;;;;7.78;6.32;;;;;;;;;;5059329;28;20217;-68
2023/08/21 09:12:23;;;;;;;7.22;6.53;;;;;;;;;;5055973;28;20202;-71
2023/08/21 09:14:50;;;;;;;7.72;6.20;;;;;;;;;;5056579;28;20206;-66
2023/08/21 09:17:18;;;;;;;6.88;6.13;;;;;;;;;;5058759;28;20233;-67
2023/08/21 09:19:46;;;;;;;8.30;5.90;;;;;;;;;;5056208;28;20295;-67
2023/08/21 09:22:20;;;;;;;8.65;6.15;;;;;;;;;;5050072;28;20206;-68
2023/08/21 09:25:00;;;;;;;11.15;5.72;;;;;;;;;;5069328;28;20217;-68
2023/08/21 09:27:28;;;;;;;6.70;6.03;;;;;;;;;;5067297;28;20252;-67
2023/08/21 09:29:56;;;;;;;8.32;6.38;;;;;;;;;;5054446;28;20229;-67
2023/08/21 09:32:25;;;;;;;7.63;6.40;;;;;;;;;;5049885;28;20297;-69
2023/08/21 09:34:52;;;;;;;9.13;6.38;;;;;;;;;;5055359;28;20202;-68
2023/08/21 09:37:19;;;;;;;9.50;6.63;;;;;;;;;;5052429;28;20224;-67
2023/08/21 09:39:47;;;;;;;8.02;6.03;;;;;;;;;;5051622;28;20209;-67
2023/08/21 09:42:14;;;;;;;6.90;6.20;;;;;;;;;;5059009;28;20216;-68
2023/08/21 09:44:43;;;;;;;8.85;6.07;;;;;;;;;;5061041;28;20233;-67
2023/08/21 09:47:13;;;;;;;6.80;6.20;;;;;;;;;;5056214;28;20220;-68
2023/08/21 09:49:41;;;;;;;8.23;5.97;;;;;;;;;;5057885;28;20275;-71
2023/08/21 09:52:13;;;;;;;7.65;6.68;;;;;;;;;;5055171;28;20268;-66
2023/08/21 09:54:41;;;;;;;8.00;6.68;;;;;;;;;;5054045;28;20202;-67
2023/08/21 09:57:09;;;;;;;7.18;6.30;;;;;;;;;;5053374;28;20231;-70
2023/08/21 09:59:40;;;;;;;9.23;6.20;;;;;;;;;;5055663;28;20228;-67
2023/08/21 10:02:08;;;;;;;6.90;6.15;;;;;;;;;;5065819;28;20205;-69
2023/08/21 10:04:37;;;;;;;7.38;6.40;;;;;;;;;;5054607;28;20213;-66
2023/08/21 10:07:06;;;;;;;9.85;6.63;;;;;;;;;;5073190;28;20312;-67
2023/08/21 10:09:34;;;;;;;10.27;7.68;;;;;;;;;;5053380;28;20225;-68
2023/08/21 10:12:02;;;;;;;6.85;6.25;;;;;;;;;;5049392;28;20698;-67
2023/08/21 10:14:29;;;;;;;9.65;7.35;;;;;;;;;;5057379;28;20197;-67
2023/08/21 10:16:57;;;;;;;7.20;6.50;;;;;;;;;;5048847;28;20299;-66
2023/08/21 10:19:30;;;;;;;9.27;6.72;;;;;;;;;;5049488;28;20216;-69
2023/08/21 10:21:59;;;;;;;7.10;6.38;;;;;;;;;;5049627;28;20225;-68
2023/08/21 10:24:28;;;;;;;8.63;6.53;;;;;;;;;;5051108;28;20240;-72
2023/08/21 10:26:58;;;;;;;8.48;6.65;;;;;;;;;;5051842;28;20639;-69
2023/08/21 10:29:25;;;;;;;9.13;6.90;;;;;;;;;;5054831;28;20680;-70
2023/08/21 10:32:03;;;;;;;10.02;6.53;;;;;;;;;;5050795;28;20612;-68
2023/08/21 10:34:34;;;;;;;7.65;5.85;;;;;;;;;;5056821;28;20224;-67
2023/08/21 10:37:09;;;;;;;8.00;6.40;;;;;;;;;;5045885;28;20271;-68
2023/08/21 10:39:39;;;;;;;8.07;5.90;;;;;;;;;;5051867;28;20216;-67
2023/08/21 10:42:08;;;;;;;6.78;6.07;;;;;;;;;;5052713;28;20219;-67
2023/08/21 10:45:00;;;;;;;6.65;5.90;;;;;;;;;;5056300;28;20217;-70
2023/08/21 10:47:27;;;;;;;9.57;6.00;;;;;;;;;;5058380;28;20636;-69
2023/08/21 10:49:59;;;;;;;9.02;6.15;;;;;;;;;;5061613;28;20642;-66
2023/08/21 10:52:29;;;;;;;6.30;5.68;;;;;;;;;;5056145;28;20210;-69
2023/08/21 10:54:58;;;;;;;7.40;5.68;;;;;;;;;;5054987;28;20209;-66
2023/08/21 10:57:26;;;;;;;6.82;6.15;;;;;;;;;;5055392;28;20694;-67
2023/08/21 10:59:58;;;;;;;6.38;5.72;;;;;;;;;;5059581;28;20205;-70
2023/08/21 11:02:26;;;;;;;8.00;6.50;;;;;;;;;;5062757;28;20220;-67
2023/08/21 11:04:54;;;;;;;9.25;6.00;;;;;;;;;;5058124;28;20205;-70
2023/08/21 11:07:22;;;;;;;6.55;5.70;;;;;;;;;;5061015;28;20229;-67
2023/08/21 11:09:49;;;;;;;7.38;5.78;;;;;;;;;;5064715;28;20231;-68
2023/08/21 11:12:18;;;;;;;7.80;5.43;;;;;;;;;;5063672;28;20250;-68
2023/08/21 11:14:45;;;;;;;6.63;5.57;;;;;;;;;;5058688;28;20206;-68
2023/08/21 11:17:13;;;;;;;8.95;5.53;;;;;;;;;;5058822;28;20230;-68
2023/08/21 11:19:41;;;;;;;6.78;6.07;;;;;;;;;;5063439;28;20699;-67
2023/08/21 11:22:08;;;;;;;8.25;6.25;;;;;;;;;;5062820;28;20469;-67
2023/08/21 11:24:38;;;;;;;7.22;6.13;;;;;;;;;;5062714;28;20780;-68
2023/08/21 11:27:06;;;;;;;7.50;6.13;;;;;;;;;;5061838;28;20295;-69
2023/08/21 11:29:41;;;;;;;6.82;5.93;;;;;;;;;;5067893;28;20209;-68
2023/08/21 11:32:13;;;;;;;6.03;5.53;;;;;;;;;;5064018;28;20290;-71
2023/08/21 11:34:41;;;;;;;10.55;6.80;;;;;;;;;;5062913;28;20220;-69
2023/08/21 11:37:09;;;;;;;6.93;6.22;;;;;;;;;;5065308;28;20224;-67
2023/08/21 11:39:47;;;;;;;7.72;5.63;;;;;;;;;;5058720;28;20228;-69
2023/08/21 11:42:15;;;;;;;7.75;6.00;;;;;;;;;;5062638;28;20209;-68
2023/08/21 11:44:44;;;;;;;10.60;6.20;;;;;;;;;;5062166;28;22553;-68
2023/08/21 11:47:11;;;;;;;7.65;5.40;;;;;;;;;;5065887;28;20712;-68
2023/08/21 11:49:42;;;;;;;8.02;6.05;;;;;;;;;;5059461;28;22545;-69
2023/08/21 11:52:12;;;;;;;8.68;5.90;;;;;;;;;;5066972;28;20205;-70
2023/08/21 11:54:41;;;;;;;8.75;6.25;;;;;;;;;;5066362;28;20211;-66
2023/08/21 11:57:09;;;;;;;9.00;5.90;;;;;;;;;;5064854;28;20237;-67
2023/08/21 11:59:36;;;;;;;6.50;5.82;;;;;;;;;;5062196;28;20216;-68
2023/08/21 12:02:10;;;;;;;6.10;5.47;;;;;;;;;;5062747;28;20213;-70
2023/08/21 12:04:37;;;;;;;6.70;5.70;;;;;;;;;;5054900;28;20612;-67
2023/08/21 12:07:05;;;;;;;7.13;6.03;;;;;;;;;;5059961;28;20275;-67
2023/08/21 12:09:32;;;;;;;8.60;5.40;;;;;;;;;;5066881;28;20231;-68
2023/08/21 12:12:01;;;;;;;8.57;5.47;;;;;;;;;;5079463;28;20359;-68
2023/08/21 12:14:29;;;;;;;6.07;5.45;;;;;;;;;;5066378;28;20205;-69
2023/08/21 12:16:56;;;;;;;7.85;5.50;;;;;;;;;;5067594;28;20221;-69
2023/08/21 12:19:25;;;;;;;7.05;5.50;;;;;;;;;;5060125;28;20205;-69
2023/08/21 12:21:52;;;;;;;6.20;5.10;;;;;;;;;;5061873;28;20205;-66
2023/08/21 12:24:19;;;;;;;6.35;5.20;;;;;;;;;;5065668;28;20237;-67
2023/08/21 12:26:46;;;;;;;6.10;5.50;;;;;;;;;;5061547;28;20225;-67
2023/08/21 12:29:17;;;;;;;9.05;5.47;;;;;;;;;;5061901;28;20197;-67
2023/08/21 12:31:44;;;;;;;6.57;5.93;;;;;;;;;;5064013;28;20205;-68
2023/08/21 12:34:12;;;;;;;7.25;5.60;;;;;;;;;;5059851;28;20302;-66
2023/08/21 12:36:39;;;;;;;8.43;5.40;;;;;;;;;;5057560;28;20204;-67
2023/08/21 12:39:07;;;;;;;7.30;6.00;;;;;;;;;;5063170;28;20213;-69
2023/08/21 12:41:34;;;;;;;10.18;5.95;;;;;;;;;;5057322;28;20204;-68
2023/08/21 12:44:08;;;;;;;6.55;5.95;;;;;;;;;;5056417;28;20690;-69
2023/08/21 12:46:36;;;;;;;8.88;5.60;;;;;;;;;;5061379;28;20217;-68
2023/08/21 12:49:04;;;;;;;6.25;5.65;;;;;;;;;;5062592;28;20251;-67
2023/08/21 12:51:32;;;;;;;7.68;5.75;;;;;;;;;;5064778;28;20270;-67
2023/08/21 12:54:00;;;;;;;9.15;6.05;;;;;;;;;;5065203;28;20291;-68
2023/08/21 12:56:27;;;;;;;6.30;5.45;;;;;;;;;;5064646;28;20205;-68
2023/08/21 12:58:54;;;;;;;7.30;5.55;;;;;;;;;;5068896;28;20220;-73
2023/08/21 13:01:21;;;;;;;5.90;5.28;;;;;;;;;;5065989;28;20209;-71
2023/08/21 13:03:49;;;;;;;9.00;5.38;;;;;;;;;;5058801;28;20237;-68
2023/08/21 13:06:16;;;;;;;9.18;5.80;;;;;;;;;;5062341;28;20227;-70
2023/08/21 13:08:44;;;;;;;6.65;5.95;;;;;;;;;;5065910;28;20234;-67
2023/08/21 13:11:11;;;;;;;6.82;5.78;;;;;;;;;;5059830;28;20563;-71
2023/08/21 13:13:38;;;;;;;6.10;5.60;;;;;;;;;;5064614;28;20200;-69
2023/08/21 13:16:06;;;;;;;5.80;5.30;;;;;;;;;;5060003;28;20213;-68
2023/08/21 13:18:33;;;;;;;5.78;5.38;;;;;;;;;;5066529;28;20040;-67
2023/08/21 13:21:01;;;;;;;5.57;5.10;;;;;;;;;;5056814;28;20271;-68
2023/08/21 13:23:29;;;;;;;7.78;5.35;;;;;;;;;;5062991;28;20262;-68
2023/08/21 13:25:57;;;;;;;7.75;5.47;;;;;;;;;;5062329;28;20306;-70
2023/08/21 13:28:24;;;;;;;5.38;4.93;;;;;;;;;;5059300;28;20257;-68
2023/08/21 13:30:52;;;;;;;7.47;5.85;;;;;;;;;;5058219;28;20289;-69
2023/08/21 13:33:20;;;;;;;9.45;5.55;;;;;;;;;;5061002;28;20200;-68
2023/08/21 13:35:47;;;;;;;7.68;5.30;;;;;;;;;;5061414;28;20205;-69
2023/08/21 13:38:16;;;;;;;7.82;5.85;;;;;;;;;;5058228;28;20323;-69
2023/08/21 13:40:44;;;;;;;6.88;6.18;;;;;;;;;;5061740;28;20205;-70
2023/08/21 13:43:12;;;;;;;6.95;5.80;;;;;;;;;;5057927;28;20324;-67
2023/08/21 13:45:42;;;;;;;7.15;6.00;;;;;;;;;;5057710;28;20198;-69
2023/08/21 13:48:10;;;;;;;6.80;6.10;;;;;;;;;;5058742;28;20229;-68
2023/08/21 13:50:37;;;;;;;8.07;6.55;;;;;;;;;;5055682;28;20201;-67
2023/08/21 13:53:05;;;;;;;6.38;5.78;;;;;;;;;;5049263;28;20291;-70
2023/08/21 13:55:32;;;;;;;8.00;6.18;;;;;;;;;;5049161;28;20241;-69
2023/08/21 13:57:59;;;;;;;6.90;6.15;;;;;;;;;;5046838;28;20310;-71
2023/08/21 14:00:27;;;;;;;6.05;5.45;;;;;;;;;;5050065;28;20243;-69
2023/08/21 14:02:55;;;;;;;7.32;5.55;;;;;;;;;;5049006;28;20228;-70
2023/08/21 14:05:22;;;;;;;9.32;5.50;;;;;;;;;;5050127;28;20213;-67
2023/08/21 14:07:50;;;;;;;8.93;5.80;;;;;;;;;;5054785;28;20229;-72
2023/08/21 14:10:17;;;;;;;11.23;6.05;;;;;;;;;;5052768;28;20338;-68
2023/08/21 14:12:44;;;;;;;6.82;6.10;;;;;;;;;;5050408;28;20675;-68
2023/08/21 14:15:12;;;;;;;6.88;5.50;;;;;;;;;;5051088;28;20209;-68
2023/08/21 14:17:39;;;;;;;6.18;5.57;;;;;;;;;;5051503;28;20221;-69
2023/08/21 14:20:07;;;;;;;6.43;5.82;;;;;;;;;;5054289;28;20582;-68
2023/08/21 14:22:36;;;;;;;6.00;5.50;;;;;;;;;;5051441;28;20938;-70
2023/08/21 14:25:07;;;;;;;8.25;5.50;;;;;;;;;;5044619;28;20317;-68
2023/08/21 14:27:34;;;;;;;7.32;5.57;;;;;;;;;;5047770;28;20228;-70
2023/08/21 14:30:05;;;;;;;6.32;5.22;;;;;;;;;;5043085;28;20212;-68
2023/08/21 14:32:33;;;;;;;4.97;4.57;;;;;;;;;;5052850;28;20201;-67
2023/08/21 14:35:05;;;;;;;7.45;5.80;;;;;;;;;;5056599;28;20200;-69
2023/08/21 14:37:32;;;;;;;12.07;6.15;;;;;;;;;;5055431;28;20248;-69
2023/08/21 14:40:00;;;;;;;6.68;5.88;;;;;;;;;;5050634;28;20209;-70
2023/08/21 14:42:27;;;;;;;6.07;5.50;;;;;;;;;;5058238;28;20212;-68
2023/08/21 14:44:54;;;;;;;7.47;5.82;;;;;;;;;;5050552;28;20215;-71
2023/08/21 14:47:21;;;;;;;8.38;5.90;;;;;;;;;;5050338;28;20237;-69